ZA-0046 weather

Schmidtsdrif Airport
Schmidtsdrif, Northern Cape, South Africa

Public forecast

Using degrees Celsius for public forecast. Weather courtesy of forecast.io.

METAR (pilot weather report)

Closest report is Kimberley Airport, 39.4 nm (72.9 km) ESE. Retrieved 2019/08/21 15:00 UTC (9 minutes ago):

FAKM 211500Z 23001KT CAVOK 24/M04 Q1028

TAF (pilot weather forecast)

Forecast is more than 12 hours old.

Closest forecast is Kimberley Airport, 39.4 nm (72.9 km) ESE. Retrieved 2018/10/29 07:06 UTC (10 months ago):

TAF TAF FAKM 290600Z 2907/2919 33015KT CAVOK TX38/2913Z TN28/2918Z